Terminal Aerodrome Forecast
Issued by NWS Wilmington, NC

Home | Current Version | Previous Version | Text Only | Print | Product List | Glossary On
Versions: 1 2 3 4 5 6 7 8 9 10 11 12 13 14 15 16 17 18 19
277
FTUS42 KILM 051722
TAFLBT
TAF
KLBT 051722Z 0518/0618 33014G22KT P6SM VCSH BKN035 BKN080
      TEMPO 0519/0523 6SM -SHRA BKN030
     FM060000 31007KT P6SM -SHRA BKN040 BKN080
     FM061300 33010KT P6SM VCSH BKN030=

USA.gov is the U.S. government's official web portal to all federal, state and local government web resources and services.